Terminal Aerodrome Forecast
Issued by NWS

Home | Current Version | Previous Version | Text Only | Print | Product List | Glossary On
Versions: 1 2 3 4 5 6 7 8 9 10 11 12 13 14 15 16 17 18 19 20 21 22
587
FTUS41 KBGM 212320
TAFITH
TAF
KITH 212320Z 2200/2224 VRB03KT P6SM BKN250
     FM220300 VRB03KT 4SM BR BKN250
     FM220600 00000KT 2SM BR SCT002
      TEMPO 2209/2213 1/2SM FG VV002
     FM221500 33006KT P6SM SCT250=

USA.gov is the U.S. government's official web portal to all federal, state and local government web resources and services.